sensor_id;sensor_type;location;lat;lon;timestamp;pressure;altitude;pressure_sealevel;temperature;humidity
21902;BME280;11115;46.038;14.612;2022-08-19T00:02:11;97901.69;;;19.85;100.00
21902;BME280;11115;46.038;14.612;2022-08-19T00:05:03;97923.00;;;19.86;100.00
21902;BME280;11115;46.038;14.612;2022-08-19T00:07:52;97939.31;;;20.14;100.00
21902;BME280;11115;46.038;14.612;2022-08-19T00:10:40;97906.84;;;20.17;100.00
21902;BME280;11115;46.038;14.612;2022-08-19T00:13:32;97902.47;;;20.19;100.00
21902;BME280;11115;46.038;14.612;2022-08-19T00:16:20;97895.78;;;19.94;100.00
21902;BME280;11115;46.038;14.612;2022-08-19T00:19:14;97899.84;;;19.96;100.00
21902;BME280;11115;46.038;14.612;2022-08-19T00:22:00;97894.72;;;19.68;100.00
21902;BME280;11115;46.038;14.612;2022-08-19T00:25:00;97880.59;;;19.61;100.00
21902;BME280;11115;46.038;14.612;2022-08-19T00:27:58;97872.84;;;19.51;100.00
21902;BME280;11115;46.038;14.612;2022-08-19T00:30:46;97877.09;;;19.68;100.00
21902;BME280;11115;46.038;14.612;2022-08-19T00:33:39;97881.72;;;19.90;100.00
21902;BME280;11115;46.038;14.612;2022-08-19T00:36:28;97868.03;;;20.26;100.00
21902;BME280;11115;46.038;14.612;2022-08-19T00:39:18;97845.91;;;20.21;100.00
21902;BME280;11115;46.038;14.612;2022-08-19T00:42:08;97842.53;;;20.05;100.00
21902;BME280;11115;46.038;14.612;2022-08-19T00:44:53;97824.84;;;19.97;100.00
21902;BME280;11115;46.038;14.612;2022-08-19T00:47:44;97820.47;;;20.03;100.00
21902;BME280;11115;46.038;14.612;2022-08-19T00:50:32;97801.72;;;20.11;100.00
21902;BME280;11115;46.038;14.612;2022-08-19T00:53:27;97832.19;;;20.09;100.00
21902;BME280;11115;46.038;14.612;2022-08-19T00:56:14;97833.97;;;19.87;100.00
21902;BME280;11115;46.038;14.612;2022-08-19T00:59:15;97853.84;;;19.67;100.00
21902;BME280;11115;46.038;14.612;2022-08-19T01:02:15;97838.63;;;19.72;100.00
21902;BME280;11115;46.038;14.612;2022-08-19T01:05:20;97832.28;;;19.79;100.00
21902;BME280;11115;46.038;14.612;2022-08-19T01:08:16;97823.66;;;19.98;100.00
21902;BME280;11115;46.038;14.612;2022-08-19T01:11:09;97801.25;;;20.05;100.00
21902;BME280;11115;46.038;14.612;2022-08-19T01:14:08;97785.66;;;20.08;100.00
21902;BME280;11115;46.038;14.612;2022-08-19T01:16:56;97767.63;;;20.12;100.00
21902;BME280;11115;46.038;14.612;2022-08-19T01:19:46;97783.66;;;20.12;100.00
21902;BME280;11115;46.038;14.612;2022-08-19T01:22:52;97774.47;;;20.15;100.00
21902;BME280;11115;46.038;14.612;2022-08-19T01:25:51;97764.06;;;20.22;100.00
21902;BME280;11115;46.038;14.612;2022-08-19T01:28:44;97772.84;;;20.14;100.00
21902;BME280;11115;46.038;14.612;2022-08-19T01:31:30;97765.63;;;20.13;100.00
21902;BME280;11115;46.038;14.612;2022-08-19T01:34:20;97765.25;;;20.18;100.00
21902;BME280;11115;46.038;14.612;2022-08-19T01:37:10;97790.63;;;20.28;100.00
21902;BME280;11115;46.038;14.612;2022-08-19T01:40:06;97796.84;;;20.55;100.00
21902;BME280;11115;46.038;14.612;2022-08-19T01:43:02;97784.53;;;20.78;100.00
21902;BME280;11115;46.038;14.612;2022-08-19T01:45:48;97781.38;;;20.83;100.00
21902;BME280;11115;46.038;14.612;2022-08-19T01:48:38;97771.34;;;20.89;100.00
21902;BME280;11115;46.038;14.612;2022-08-19T01:51:26;97767.34;;;20.97;100.00
21902;BME280;11115;46.038;14.612;2022-08-19T01:54:14;97776.59;;;20.98;100.00
21902;BME280;11115;46.038;14.612;2022-08-19T01:57:11;97747.72;;;21.04;100.00
21902;BME280;11115;46.038;14.612;2022-08-19T01:59:59;97746.94;;;21.11;100.00
21902;BME280;11115;46.038;14.612;2022-08-19T02:02:52;97769.03;;;21.12;100.00
21902;BME280;11115;46.038;14.612;2022-08-19T02:05:46;97787.13;;;21.18;100.00
21902;BME280;11115;46.038;14.612;2022-08-19T02:08:43;97807.19;;;21.10;100.00
21902;BME280;11115;46.038;14.612;2022-08-19T02:11:35;97858.97;;;21.02;100.00
21902;BME280;11115;46.038;14.612;2022-08-19T02:14:34;97934.69;;;20.77;100.00
21902;BME280;11115;46.038;14.612;2022-08-19T02:17:20;98024.34;;;20.45;100.00
21902;BME280;11115;46.038;14.612;2022-08-19T02:20:10;98123.13;;;20.50;100.00
21902;BME280;11115;46.038;14.612;2022-08-19T02:22:59;98107.09;;;20.88;100.00
21902;BME280;11115;46.038;14.612;2022-08-19T02:25:49;98058.41;;;20.80;100.00
21902;BME280;11115;46.038;14.612;2022-08-19T02:28:45;98060.22;;;20.62;100.00
21902;BME280;11115;46.038;14.612;2022-08-19T02:31:34;98056.47;;;20.47;100.00
21902;BME280;11115;46.038;14.612;2022-08-19T02:34:24;98047.47;;;20.35;100.00
21902;BME280;11115;46.038;14.612;2022-08-19T02:37:14;98059.16;;;20.40;100.00
21902;BME280;11115;46.038;14.612;2022-08-19T02:40:16;98059.91;;;20.34;100.00
21902;BME280;11115;46.038;14.612;2022-08-19T02:43:09;98071.09;;;20.30;100.00
21902;BME280;11115;46.038;14.612;2022-08-19T02:45:56;98073.34;;;20.47;100.00
21902;BME280;11115;46.038;14.612;2022-08-19T02:48:43;98102.66;;;20.20;100.00
21902;BME280;11115;46.038;14.612;2022-08-19T02:51:40;98112.38;;;20.26;100.00
21902;BME280;11115;46.038;14.612;2022-08-19T02:54:28;98087.84;;;20.23;100.00
21902;BME280;11115;46.038;14.612;2022-08-19T02:57:18;98070.72;;;20.01;100.00
21902;BME280;11115;46.038;14.612;2022-08-19T03:00:08;98077.38;;;19.86;100.00
21902;BME280;11115;46.038;14.612;2022-08-19T03:03:10;98161.63;;;19.90;100.00
21902;BME280;11115;46.038;14.612;2022-08-19T03:06:09;98141.28;;;20.00;100.00
21902;BME280;11115;46.038;14.612;2022-08-19T03:08:57;98110.75;;;19.95;100.00
21902;BME280;11115;46.038;14.612;2022-08-19T03:11:47;98108.66;;;19.88;100.00
21902;BME280;11115;46.038;14.612;2022-08-19T03:14:41;98112.16;;;19.82;100.00
21902;BME280;11115;46.038;14.612;2022-08-19T03:17:31;98097.28;;;19.78;100.00
21902;BME280;11115;46.038;14.612;2022-08-19T03:20:18;98071.25;;;19.81;100.00
21902;BME280;11115;46.038;14.612;2022-08-19T03:23:07;98058.59;;;19.64;100.00
21902;BME280;11115;46.038;14.612;2022-08-19T03:25:55;98048.69;;;19.47;100.00
21902;BME280;11115;46.038;14.612;2022-08-19T03:28:45;98018.59;;;19.44;100.00
21902;BME280;11115;46.038;14.612;2022-08-19T03:31:37;97997.50;;;19.27;100.00
21902;BME280;11115;46.038;14.612;2022-08-19T03:34:28;98001.22;;;19.31;100.00
21902;BME280;11115;46.038;14.612;2022-08-19T03:37:23;97994.88;;;19.38;100.00
21902;BME280;11115;46.038;14.612;2022-08-19T03:40:10;97975.38;;;19.19;100.00
21902;BME280;11115;46.038;14.612;2022-08-19T03:43:00;97965.63;;;19.09;100.00
21902;BME280;11115;46.038;14.612;2022-08-19T03:45:48;97927.78;;;18.96;100.00
21902;BME280;11115;46.038;14.612;2022-08-19T03:48:38;97945.72;;;19.18;100.00
21902;BME280;11115;46.038;14.612;2022-08-19T03:51:37;97931.38;;;19.23;100.00
21902;BME280;11115;46.038;14.612;2022-08-19T03:54:24;97918.91;;;19.20;100.00
21902;BME280;11115;46.038;14.612;2022-08-19T03:57:13;97896.47;;;18.90;100.00
21902;BME280;11115;46.038;14.612;2022-08-19T04:00:03;97900.41;;;18.86;100.00
21902;BME280;11115;46.038;14.612;2022-08-19T04:02:51;97903.38;;;18.96;100.00
21902;BME280;11115;46.038;14.612;2022-08-19T04:05:38;97915.72;;;18.92;100.00
21902;BME280;11115;46.038;14.612;2022-08-19T04:08:29;97928.22;;;18.71;100.00
21902;BME280;11115;46.038;14.612;2022-08-19T04:11:22;97957.19;;;18.60;100.00
21902;BME280;11115;46.038;14.612;2022-08-19T04:14:19;97922.97;;;18.70;100.00
21902;BME280;11115;46.038;14.612;2022-08-19T04:17:05;97983.78;;;18.69;100.00
21902;BME280;11115;46.038;14.612;2022-08-19T04:20:02;97952.16;;;18.69;100.00
21902;BME280;11115;46.038;14.612;2022-08-19T04:22:51;97865.81;;;18.74;100.00
21902;BME280;11115;46.038;14.612;2022-08-19T04:25:43;97959.84;;;18.72;100.00
21902;BME280;11115;46.038;14.612;2022-08-19T04:28:29;97969.16;;;18.79;100.00
21902;BME280;11115;46.038;14.612;2022-08-19T04:31:25;97964.75;;;19.05;100.00
21902;BME280;11115;46.038;14.612;2022-08-19T04:34:14;97973.28;;;19.12;100.00
21902;BME280;11115;46.038;14.612;2022-08-19T04:37:08;97996.28;;;19.25;100.00
21902;BME280;11115;46.038;14.612;2022-08-19T04:39:57;97932.53;;;18.92;100.00
21902;BME280;11115;46.038;14.612;2022-08-19T04:43:11;97984.91;;;19.40;100.00
21902;BME280;11115;46.038;14.612;2022-08-19T04:46:09;97978.47;;;19.40;100.00
21902;BME280;11115;46.038;14.612;2022-08-19T04:48:59;97996.84;;;19.34;100.00
21902;BME280;11115;46.038;14.612;2022-08-19T04:51:46;98011.53;;;19.27;100.00
21902;BME280;11115;46.038;14.612;2022-08-19T04:54:38;98016.47;;;19.34;100.00
21902;BME280;11115;46.038;14.612;2022-08-19T04:57:25;98014.47;;;19.34;100.00
21902;BME280;11115;46.038;14.612;2022-08-19T05:00:14;98036.91;;;19.34;100.00
21902;BME280;11115;46.038;14.612;2022-08-19T05:03:04;98056.16;;;19.36;100.00
21902;BME280;11115;46.038;14.612;2022-08-19T05:05:55;98089.00;;;19.35;100.00
21902;BME280;11115;46.038;14.612;2022-08-19T05:08:44;98140.00;;;19.18;100.00
21902;BME280;11115;46.038;14.612;2022-08-19T05:11:36;98154.56;;;19.27;100.00
21902;BME280;11115;46.038;14.612;2022-08-19T05:14:27;98114.81;;;19.22;100.00
21902;BME280;11115;46.038;14.612;2022-08-19T05:17:14;98086.41;;;19.50;100.00
21902;BME280;11115;46.038;14.612;2022-08-19T05:20:15;98106.25;;;19.37;100.00
21902;BME280;11115;46.038;14.612;2022-08-19T05:23:19;98121.56;;;19.44;100.00
21902;BME280;11115;46.038;14.612;2022-08-19T05:26:08;98125.13;;;19.63;100.00
21902;BME280;11115;46.038;14.612;2022-08-19T05:28:57;98108.19;;;19.56;100.00
21902;BME280;11115;46.038;14.612;2022-08-19T05:31:47;98085.84;;;19.63;100.00
21902;BME280;11115;46.038;14.612;2022-08-19T05:34:33;98045.41;;;19.41;100.00
21902;BME280;11115;46.038;14.612;2022-08-19T05:37:23;98062.69;;;19.70;100.00
21902;BME280;11115;46.038;14.612;2022-08-19T05:40:13;98086.53;;;19.83;100.00
21902;BME280;11115;46.038;14.612;2022-08-19T05:42:59;98069.69;;;19.83;100.00
21902;BME280;11115;46.038;14.612;2022-08-19T05:45:50;98050.22;;;19.97;100.00
21902;BME280;11115;46.038;14.612;2022-08-19T05:48:44;98044.22;;;19.99;100.00
21902;BME280;11115;46.038;14.612;2022-08-19T05:51:36;98030.56;;;19.97;100.00
21902;BME280;11115;46.038;14.612;2022-08-19T05:54:25;98037.00;;;19.98;100.00
21902;BME280;11115;46.038;14.612;2022-08-19T05:57:15;98022.34;;;20.12;100.00
21902;BME280;11115;46.038;14.612;2022-08-19T06:00:07;98009.88;;;20.09;100.00
21902;BME280;11115;46.038;14.612;2022-08-19T06:02:59;97997.94;;;20.19;100.00
21902;BME280;11115;46.038;14.612;2022-08-19T06:05:51;97977.56;;;20.26;100.00
21902;BME280;11115;46.038;14.612;2022-08-19T06:08:40;97979.94;;;20.24;100.00
21902;BME280;11115;46.038;14.612;2022-08-19T06:14:38;97942.59;;;20.23;100.00
21902;BME280;11115;46.038;14.612;2022-08-19T06:17:37;97943.16;;;20.36;100.00
21902;BME280;11115;46.038;14.612;2022-08-19T06:20:24;97926.38;;;20.43;100.00
21902;BME280;11115;46.038;14.612;2022-08-19T06:23:12;97923.25;;;20.52;100.00
21902;BME280;11115;46.038;14.612;2022-08-19T06:26:03;97917.25;;;20.53;100.00
21902;BME280;11115;46.038;14.612;2022-08-19T06:28:54;97924.25;;;20.74;100.00
21902;BME280;11115;46.038;14.612;2022-08-19T06:31:44;97919.44;;;20.74;100.00
21902;BME280;11115;46.038;14.612;2022-08-19T06:34:32;97920.22;;;20.71;100.00
21902;BME280;11115;46.038;14.612;2022-08-19T06:37:21;97929.75;;;20.63;100.00
21902;BME280;11115;46.038;14.612;2022-08-19T06:40:14;97926.50;;;20.57;100.00
21902;BME280;11115;46.038;14.612;2022-08-19T06:43:05;97927.72;;;20.60;100.00
21902;BME280;11115;46.038;14.612;2022-08-19T06:45:54;97931.06;;;20.73;100.00
21902;BME280;11115;46.038;14.612;2022-08-19T06:48:41;97918.72;;;20.88;100.00
21902;BME280;11115;46.038;14.612;2022-08-19T06:51:35;97904.59;;;20.77;100.00
21902;BME280;11115;46.038;14.612;2022-08-19T06:54:30;97889.34;;;20.82;100.00
21902;BME280;11115;46.038;14.612;2022-08-19T06:57:19;97878.56;;;20.84;100.00
21902;BME280;11115;46.038;14.612;2022-08-19T07:00:07;97866.13;;;20.88;100.00
21902;BME280;11115;46.038;14.612;2022-08-19T07:02:57;97858.91;;;20.95;100.00
21902;BME280;11115;46.038;14.612;2022-08-19T07:05:46;97848.53;;;21.02;100.00
21902;BME280;11115;46.038;14.612;2022-08-19T07:08:36;97859.72;;;20.95;100.00
21902;BME280;11115;46.038;14.612;2022-08-19T07:11:26;97904.56;;;20.74;100.00
21902;BME280;11115;46.038;14.612;2022-08-19T07:14:18;97917.97;;;20.98;100.00
21902;BME280;11115;46.038;14.612;2022-08-19T07:17:07;97903.13;;;21.01;100.00
21902;BME280;11115;46.038;14.612;2022-08-19T07:19:56;97896.84;;;21.22;100.00
21902;BME280;11115;46.038;14.612;2022-08-19T07:22:50;97875.59;;;21.25;100.00
21902;BME280;11115;46.038;14.612;2022-08-19T07:25:40;97862.38;;;21.32;100.00
21902;BME280;11115;46.038;14.612;2022-08-19T07:28:29;97872.03;;;21.38;100.00
21902;BME280;11115;46.038;14.612;2022-08-19T07:31:22;97886.16;;;21.49;100.00
21902;BME280;11115;46.038;14.612;2022-08-19T07:34:11;97871.28;;;21.52;100.00
21902;BME280;11115;46.038;14.612;2022-08-19T07:37:06;97872.09;;;21.52;100.00
21902;BME280;11115;46.038;14.612;2022-08-19T07:39:53;97869.69;;;21.55;100.00
21902;BME280;11115;46.038;14.612;2022-08-19T07:42:43;97876.94;;;21.59;100.00
21902;BME280;11115;46.038;14.612;2022-08-19T07:45:43;97866.06;;;21.54;100.00
21902;BME280;11115;46.038;14.612;2022-08-19T07:48:32;97856.50;;;21.84;100.00
21902;BME280;11115;46.038;14.612;2022-08-19T07:51:33;97840.84;;;21.93;100.00
21902;BME280;11115;46.038;14.612;2022-08-19T07:54:21;97839.22;;;21.89;100.00
21902;BME280;11115;46.038;14.612;2022-08-19T07:57:11;97847.31;;;22.08;100.00
21902;BME280;11115;46.038;14.612;2022-08-19T08:00:04;97838.09;;;22.22;100.00
21902;BME280;11115;46.038;14.612;2022-08-19T08:02:53;97853.38;;;22.67;100.00
21902;BME280;11115;46.038;14.612;2022-08-19T08:05:46;97834.44;;;22.35;100.00
21902;BME280;11115;46.038;14.612;2022-08-19T08:08:50;97844.13;;;22.34;100.00
21902;BME280;11115;46.038;14.612;2022-08-19T08:11:57;97856.19;;;22.53;100.00
21902;BME280;11115;46.038;14.612;2022-08-19T08:14:53;97855.78;;;22.79;100.00
21902;BME280;11115;46.038;14.612;2022-08-19T08:17:40;97856.19;;;22.24;100.00
21902;BME280;11115;46.038;14.612;2022-08-19T08:20:31;97858.59;;;22.29;100.00
21902;BME280;11115;46.038;14.612;2022-08-19T08:23:17;97847.34;;;22.26;100.00
21902;BME280;11115;46.038;14.612;2022-08-19T08:26:11;97850.97;;;22.37;100.00
21902;BME280;11115;46.038;14.612;2022-08-19T08:29:00;97845.72;;;22.60;100.00
21902;BME280;11115;46.038;14.612;2022-08-19T08:31:50;97828.00;;;22.67;100.00
21902;BME280;11115;46.038;14.612;2022-08-19T08:34:37;97856.56;;;22.72;100.00
21902;BME280;11115;46.038;14.612;2022-08-19T08:37:23;97856.59;;;22.48;100.00
21902;BME280;11115;46.038;14.612;2022-08-19T08:40:46;97869.09;;;22.57;100.00
21902;BME280;11115;46.038;14.612;2022-08-19T08:43:39;97865.88;;;22.41;100.00
21902;BME280;11115;46.038;14.612;2022-08-19T08:46:50;97867.88;;;22.30;100.00
21902;BME280;11115;46.038;14.612;2022-08-19T08:49:59;97845.75;;;22.25;100.00
21902;BME280;11115;46.038;14.612;2022-08-19T08:52:56;97872.69;;;22.54;100.00
21902;BME280;11115;46.038;14.612;2022-08-19T08:55:49;97882.75;;;22.52;100.00
21902;BME280;11115;46.038;14.612;2022-08-19T09:02:02;97877.13;;;22.98;100.00
21902;BME280;11115;46.038;14.612;2022-08-19T09:05:02;97877.09;;;23.05;100.00
21902;BME280;11115;46.038;14.612;2022-08-19T09:08:22;97871.88;;;23.04;100.00
21902;BME280;11115;46.038;14.612;2022-08-19T09:14:56;97860.81;;;23.52;100.00
21902;BME280;11115;46.038;14.612;2022-08-19T09:17:54;97861.53;;;23.77;100.00
21902;BME280;11115;46.038;14.612;2022-08-19T09:20:42;97869.53;;;23.93;100.00
21902;BME280;11115;46.038;14.612;2022-08-19T09:23:31;97856.66;;;23.81;100.00
21902;BME280;11115;46.038;14.612;2022-08-19T09:26:31;97852.97;;;23.95;100.00
21902;BME280;11115;46.038;14.612;2022-08-19T09:29:20;97845.25;;;23.99;100.00
21902;BME280;11115;46.038;14.612;2022-08-19T09:32:09;97847.69;;;24.01;100.00
21902;BME280;11115;46.038;14.612;2022-08-19T09:34:59;97839.56;;;24.06;100.00
21902;BME280;11115;46.038;14.612;2022-08-19T09:37:48;97852.94;;;23.99;100.00
21902;BME280;11115;46.038;14.612;2022-08-19T09:40:48;97852.69;;;23.72;100.00
21902;BME280;11115;46.038;14.612;2022-08-19T09:43:39;97857.91;;;23.77;100.00
21902;BME280;11115;46.038;14.612;2022-08-19T09:46:28;97868.81;;;23.75;100.00
21902;BME280;11115;46.038;14.612;2022-08-19T09:49:20;97872.75;;;23.88;100.00
21902;BME280;11115;46.038;14.612;2022-08-19T09:52:10;97859.38;;;24.03;100.00
21902;BME280;11115;46.038;14.612;2022-08-19T09:54:57;97862.94;;;24.14;100.00
21902;BME280;11115;46.038;14.612;2022-08-19T09:57:46;97849.13;;;24.23;100.00
21902;BME280;11115;46.038;14.612;2022-08-19T10:00:37;97856.78;;;24.33;100.00
21902;BME280;11115;46.038;14.612;2022-08-19T10:03:25;97848.06;;;24.58;100.00
21902;BME280;11115;46.038;14.612;2022-08-19T10:06:15;97847.31;;;24.54;100.00
21902;BME280;11115;46.038;14.612;2022-08-19T10:09:10;97838.81;;;24.54;100.00
21902;BME280;11115;46.038;14.612;2022-08-19T10:11:57;97840.09;;;24.87;100.00
21902;BME280;11115;46.038;14.612;2022-08-19T10:14:46;97827.88;;;25.01;100.00
21902;BME280;11115;46.038;14.612;2022-08-19T10:17:39;97819.03;;;25.33;100.00
21902;BME280;11115;46.038;14.612;2022-08-19T10:20:31;97803.66;;;24.96;100.00
21902;BME280;11115;46.038;14.612;2022-08-19T10:23:21;97803.75;;;25.23;100.00
21902;BME280;11115;46.038;14.612;2022-08-19T10:26:07;97804.53;;;25.27;100.00
21902;BME280;11115;46.038;14.612;2022-08-19T10:28:56;97803.41;;;24.80;100.00
21902;BME280;11115;46.038;14.612;2022-08-19T10:31:43;97798.53;;;25.52;100.00
21902;BME280;11115;46.038;14.612;2022-08-19T10:34:31;97795.38;;;25.77;100.00
21902;BME280;11115;46.038;14.612;2022-08-19T10:37:21;97791.16;;;26.16;100.00
21902;BME280;11115;46.038;14.612;2022-08-19T10:40:11;97774.94;;;26.16;100.00
21902;BME280;11115;46.038;14.612;2022-08-19T10:43:02;97792.56;;;26.98;100.00
21902;BME280;11115;46.038;14.612;2022-08-19T10:45:55;97792.31;;;27.32;100.00
21902;BME280;11115;46.038;14.612;2022-08-19T10:48:45;97767.91;;;27.34;100.00
21902;BME280;11115;46.038;14.612;2022-08-19T10:51:32;97778.69;;;27.43;100.00
21902;BME280;11115;46.038;14.612;2022-08-19T10:54:37;97765.09;;;28.06;100.00
21902;BME280;11115;46.038;14.612;2022-08-19T10:57:59;97765.00;;;27.58;100.00
21902;BME280;11115;46.038;14.612;2022-08-19T11:00:57;97772.50;;;27.08;100.00
21902;BME280;11115;46.038;14.612;2022-08-19T11:03:45;97778.47;;;27.14;100.00
21902;BME280;11115;46.038;14.612;2022-08-19T11:06:38;97773.84;;;26.80;100.00
21902;BME280;11115;46.038;14.612;2022-08-19T11:09:27;97773.06;;;26.56;100.00
21902;BME280;11115;46.038;14.612;2022-08-19T11:12:14;97771.78;;;26.38;100.00
21902;BME280;11115;46.038;14.612;2022-08-19T11:15:14;97774.41;;;26.25;100.00
21902;BME280;11115;46.038;14.612;2022-08-19T11:18:03;97765.03;;;26.28;100.00
21902;BME280;11115;46.038;14.612;2022-08-19T11:20:54;97760.84;;;26.13;100.00
21902;BME280;11115;46.038;14.612;2022-08-19T11:23:40;97772.91;;;26.17;100.00
21902;BME280;11115;46.038;14.612;2022-08-19T11:26:30;97770.34;;;25.99;100.00
21902;BME280;11115;46.038;14.612;2022-08-19T11:29:20;97765.50;;;25.99;100.00
21902;BME280;11115;46.038;14.612;2022-08-19T11:32:12;97777.19;;;26.28;100.00
21902;BME280;11115;46.038;14.612;2022-08-19T11:35:02;97780.31;;;27.04;100.00
21902;BME280;11115;46.038;14.612;2022-08-19T11:37:51;97777.69;;;28.05;100.00
21902;BME280;11115;46.038;14.612;2022-08-19T11:40:42;97777.75;;;27.86;100.00
21902;BME280;11115;46.038;14.612;2022-08-19T11:43:31;97773.72;;;27.67;100.00
21902;BME280;11115;46.038;14.612;2022-08-19T11:46:23;97771.25;;;27.69;100.00
21902;BME280;11115;46.038;14.612;2022-08-19T11:49:10;97770.88;;;27.47;100.00
21902;BME280;11115;46.038;14.612;2022-08-19T11:51:56;97760.25;;;27.87;100.00
21902;BME280;11115;46.038;14.612;2022-08-19T11:54:44;97761.75;;;27.75;100.00
21902;BME280;11115;46.038;14.612;2022-08-19T11:57:34;97776.19;;;28.01;100.00
21902;BME280;11115;46.038;14.612;2022-08-19T12:00:23;97784.09;;;28.75;100.00
21902;BME280;11115;46.038;14.612;2022-08-19T12:03:12;97783.19;;;28.12;100.00
21902;BME280;11115;46.038;14.612;2022-08-19T12:06:12;97791.41;;;27.74;100.00
21902;BME280;11115;46.038;14.612;2022-08-19T12:09:03;97805.41;;;27.65;100.00
21902;BME280;11115;46.038;14.612;2022-08-19T12:11:51;97804.63;;;27.65;100.00
21902;BME280;11115;46.038;14.612;2022-08-19T12:14:39;97780.75;;;27.42;100.00
21902;BME280;11115;46.038;14.612;2022-08-19T12:17:28;97796.91;;;27.45;100.00
21902;BME280;11115;46.038;14.612;2022-08-19T12:20:17;97781.53;;;27.43;100.00
21902;BME280;11115;46.038;14.612;2022-08-19T12:23:08;97792.16;;;27.59;100.00
21902;BME280;11115;46.038;14.612;2022-08-19T12:26:00;97787.75;;;27.74;100.00
21902;BME280;11115;46.038;14.612;2022-08-19T12:28:49;97783.56;;;27.98;100.00
21902;BME280;11115;46.038;14.612;2022-08-19T12:31:35;97787.03;;;28.06;100.00
21902;BME280;11115;46.038;14.612;2022-08-19T12:34:30;97790.25;;;27.72;100.00
21902;BME280;11115;46.038;14.612;2022-08-19T12:37:16;97775.25;;;27.71;100.00
21902;BME280;11115;46.038;14.612;2022-08-19T12:40:08;97785.91;;;27.47;100.00
21902;BME280;11115;46.038;14.612;2022-08-19T12:42:57;97815.38;;;27.34;100.00
21902;BME280;11115;46.038;14.612;2022-08-19T12:45:46;97841.88;;;26.84;100.00
21902;BME280;11115;46.038;14.612;2022-08-19T12:48:37;97853.94;;;25.87;100.00
21902;BME280;11115;46.038;14.612;2022-08-19T12:51:27;97853.66;;;25.44;100.00
21902;BME280;11115;46.038;14.612;2022-08-19T12:54:16;97845.22;;;25.03;100.00
21902;BME280;11115;46.038;14.612;2022-08-19T12:57:07;97844.91;;;24.94;100.00
21902;BME280;11115;46.038;14.612;2022-08-19T12:59:55;97845.38;;;24.89;100.00
21902;BME280;11115;46.038;14.612;2022-08-19T13:02:47;97842.13;;;24.87;100.00
21902;BME280;11115;46.038;14.612;2022-08-19T13:05:37;97846.72;;;24.73;100.00
21902;BME280;11115;46.038;14.612;2022-08-19T13:08:24;97849.63;;;24.63;100.00
21902;BME280;11115;46.038;14.612;2022-08-19T13:11:13;97854.69;;;23.78;100.00
21902;BME280;11115;46.038;14.612;2022-08-19T13:14:11;97851.75;;;22.80;100.00
21902;BME280;11115;46.038;14.612;2022-08-19T13:16:58;97860.81;;;23.55;100.00
21902;BME280;11115;46.038;14.612;2022-08-19T13:19:47;97856.78;;;24.33;100.00
21902;BME280;11115;46.038;14.612;2022-08-19T13:22:32;97857.31;;;26.06;100.00
21902;BME280;11115;46.038;14.612;2022-08-19T13:25:22;97861.63;;;26.14;100.00
21902;BME280;11115;46.038;14.612;2022-08-19T13:28:11;97848.75;;;26.36;100.00
21902;BME280;11115;46.038;14.612;2022-08-19T13:31:00;97821.84;;;26.71;100.00
21902;BME280;11115;46.038;14.612;2022-08-19T13:34:10;97819.09;;;27.11;100.00
21902;BME280;11115;46.038;14.612;2022-08-19T13:36:59;97823.16;;;28.58;100.00
21902;BME280;11115;46.038;14.612;2022-08-19T13:39:48;97822.56;;;29.41;100.00
21902;BME280;11115;46.038;14.612;2022-08-19T13:42:39;97823.72;;;31.65;100.00
21902;BME280;11115;46.038;14.612;2022-08-19T13:45:28;97819.84;;;35.40;100.00
21902;BME280;11115;46.038;14.612;2022-08-19T13:48:13;97810.94;;;35.52;84.99
21902;BME280;11115;46.038;14.612;2022-08-19T13:51:18;97800.97;;;36.92;88.24
21902;BME280;11115;46.038;14.612;2022-08-19T13:54:08;97814.16;;;37.39;88.31
21902;BME280;11115;46.038;14.612;2022-08-19T13:56:59;97811.22;;;36.93;65.90
21902;BME280;11115;46.038;14.612;2022-08-19T13:59:45;97809.34;;;38.03;71.86
21902;BME280;11115;46.038;14.612;2022-08-19T14:02:35;97791.44;;;37.98;65.49
21902;BME280;11115;46.038;14.612;2022-08-19T14:05:26;97795.78;;;35.52;90.57
21902;BME280;11115;46.038;14.612;2022-08-19T14:08:15;97787.44;;;36.63;81.44
21902;BME280;11115;46.038;14.612;2022-08-19T14:11:09;97793.69;;;35.52;78.90
21902;BME280;11115;46.038;14.612;2022-08-19T14:13:55;97793.56;;;33.76;100.00
21902;BME280;11115;46.038;14.612;2022-08-19T14:16:48;97793.84;;;32.59;100.00
21902;BME280;11115;46.038;14.612;2022-08-19T14:19:36;97798.00;;;31.43;100.00
21902;BME280;11115;46.038;14.612;2022-08-19T14:22:23;97789.78;;;32.38;100.00
21902;BME280;11115;46.038;14.612;2022-08-19T14:25:16;97785.50;;;32.03;100.00
21902;BME280;11115;46.038;14.612;2022-08-19T14:28:02;97775.53;;;32.56;88.45
21902;BME280;11115;46.038;14.612;2022-08-19T14:30:47;97777.13;;;32.76;91.14
21902;BME280;11115;46.038;14.612;2022-08-19T14:33:38;97766.19;;;34.17;67.16
21902;BME280;11115;46.038;14.612;2022-08-19T14:36:31;97774.03;;;33.38;73.77
21902;BME280;11115;46.038;14.612;2022-08-19T14:39:22;97798.00;;;34.28;63.82
21902;BME280;11115;46.038;14.612;2022-08-19T14:42:11;97795.22;;;34.10;62.56
21902;BME280;11115;46.038;14.612;2022-08-19T14:45:00;97804.03;;;34.39;64.95
21902;BME280;11115;46.038;14.612;2022-08-19T14:47:57;97814.97;;;34.50;66.85
21902;BME280;11115;46.038;14.612;2022-08-19T14:50:44;97800.56;;;35.84;55.67
21902;BME280;11115;46.038;14.612;2022-08-19T14:53:30;97796.47;;;35.62;61.21
21902;BME280;11115;46.038;14.612;2022-08-19T14:56:24;97794.94;;;33.99;68.12